• Join FlightAware (Why Join?)
  • Login
  • US Flag 
12:48AM EDT


 

Airport Tracker/Info


-or-


 

Live Flight TrackerFlight Track Log ✈ N550AC ✈ 25-Jun-2013 ✈ KDAL - KLLO

Flight Track Log - Related Links

Times and Time Zones

All times are in EDT time to prevent confusion due to time zone crossing. See the N550AC flight status page for this flight to view local times or setup timezone preferences in your user account.

Time Position Orientation Groundspeed Altitude Reporting Facility
EDT Latitude Longitude Course Direction KTS MPH feet Rate Location/Type
12:30AM 31.9586 -97.5775 221° Southwest 227 261 10,600  Level Fort Worth Center
12:31AM 31.9103 -97.6264 221° Southwest 227 261 10,600  Level Fort Worth Center
12:32AM 31.8792 -97.6556 219° Southwest 220 253 10,600  Level Fort Worth Center
12:33AM 31.8289 -97.6994 217° Southwest 219 252 10,600  Level Fort Worth Center
12:34AM 31.7786 -97.7481 219° Southwest 222 255 10,600  Level Fort Worth Center
12:35AM 31.7306 -97.7919 218° Southwest 223 257 10,600  Level Fort Worth Center
12:36AM 31.6822 -97.8381 219° Southwest 222 255 10,600  Level Fort Worth Center
12:37AM 31.6383 -97.8769 217° Southwest 221 254 10,600  Level Fort Worth Center
12:38AM 31.5881 -97.9256 219° Southwest 223 257 10,600  Level Fort Worth Center
12:39AM 31.5419 -97.9692 219° Southwest 224 258 10,600  Level Fort Worth Center
12:40AM 31.4917 -98.0150 218° Southwest 222 255 10,600  Level Fort Worth Center
12:41AM 31.4433 -98.0586 218° Southwest 221 254 10,600  Level Fort Worth Center
12:42AM 31.3931 -98.1044 218° Southwest 222 255 10,600  Level Fort Worth Center
12:43AM 31.3469 -98.1456 217° Southwest 221 254 10,600  Level Fort Worth Center
12:44AM 31.2858 -98.2033 219° Southwest 227 261 10,600 -360 Level Fort Worth Center
12:45AM 31.2292 -98.2539 217° Southwest 227 261 9,900 -900 Descending Fort Worth Center
12:46AM 31.1744 -98.3069 220° Southwest 242 278 8,800 -1,200 Descending Fort Worth Center
12:48AM 31.0789 -98.3919 217° Southwest 245 282 6,700 -1,200 Descending Houston Center
12:49AM 31.0297 -98.4367 218° Southwest 229 264 5,600 -1,140 Descending Houston Center
12:50AM 30.9833 -98.4786 218° Southwest 217 250 4,500 -1,200 Descending Houston Center
12:51AM 30.9411 -98.5169 218° Southwest 201 231 3,300 -720 Descending Houston Center
12:52AM 30.9019 -98.5511 217° Southwest 187 215 3,100 -240 Descending Houston Center